Time;durP1;ratioP1;P1;durP2;ratioP2;P2;SDS_P1;SDS_P2;PMS_P1;PMS_P2;Temp;Humidity;BMP_temperature;BMP_pressure;BME280_temperature;BME280_humidity;BME280_pressure;Samples;Min_cycle;Max_cycle;Signal;HPM_P1;HPM_P2
2023/04/29 00:01:35;;;;;;;1.75;1.48;;;;;;;;;;4995267;28;20212;-52
2023/04/29 00:04:01;;;;;;;1.73;1.63;;;;;;;;;;4995516;28;20268;-52
2023/04/29 00:06:27;;;;;;;1.75;1.40;;;;;;;;;;4995545;28;20317;-52
2023/04/29 00:08:53;;;;;;;2.03;1.60;;;;;;;;;;4994582;28;20487;-52
2023/04/29 00:11:19;;;;;;;2.47;1.65;;;;;;;;;;4995302;28;20192;-52
2023/04/29 00:13:45;;;;;;;2.05;1.50;;;;;;;;;;4994634;28;20580;-52
2023/04/29 00:16:11;;;;;;;1.98;1.52;;;;;;;;;;4995744;28;20192;-52
2023/04/29 00:18:37;;;;;;;2.50;1.73;;;;;;;;;;4994115;28;20288;-52
2023/04/29 00:21:06;;;;;;;1.70;1.40;;;;;;;;;;4995265;28;20595;-52
2023/04/29 00:23:35;;;;;;;1.50;1.40;;;;;;;;;;4994802;28;20458;-52
2023/04/29 00:26:01;;;;;;;1.60;1.50;;;;;;;;;;4994611;28;20197;-52
2023/04/29 00:28:27;;;;;;;1.75;1.60;;;;;;;;;;4993077;28;20192;-52
2023/04/29 00:30:53;;;;;;;1.40;1.30;;;;;;;;;;4994784;28;20247;-52
2023/04/29 00:33:19;;;;;;;3.13;1.45;;;;;;;;;;4995325;28;20600;-52
2023/04/29 00:35:45;;;;;;;2.00;1.50;;;;;;;;;;4993708;28;20196;-52
2023/04/29 00:38:11;;;;;;;1.60;1.50;;;;;;;;;;4994032;28;20240;-52
2023/04/29 00:40:38;;;;;;;1.30;1.20;;;;;;;;;;4993662;28;20568;-52
2023/04/29 00:43:04;;;;;;;1.75;1.52;;;;;;;;;;4994357;28;20185;-52
2023/04/29 00:45:30;;;;;;;1.67;1.42;;;;;;;;;;4994041;28;20232;-52
2023/04/29 00:47:56;;;;;;;1.95;1.60;;;;;;;;;;4994447;28;20185;-52
2023/04/29 00:50:22;;;;;;;1.50;1.40;;;;;;;;;;4992359;28;20213;-52
2023/04/29 00:52:48;;;;;;;4.25;1.30;;;;;;;;;;4992928;28;20299;-52
2023/04/29 00:55:14;;;;;;;1.60;1.50;;;;;;;;;;4994382;28;20199;-52
2023/04/29 00:57:41;;;;;;;1.92;1.60;;;;;;;;;;4993476;28;20517;-52
2023/04/29 01:00:08;;;;;;;1.80;1.50;;;;;;;;;;4993704;28;20362;-52
2023/04/29 01:02:35;;;;;;;1.45;1.27;;;;;;;;;;4994003;28;20598;-53
2023/04/29 01:05:00;;;;;;;1.73;1.63;;;;;;;;;;4993390;28;20244;-52
2023/04/29 01:07:31;;;;;;;1.73;1.38;;;;;;;;;;4992103;28;20732;-52
2023/04/29 01:10:10;;;;;;;1.40;1.30;;;;;;;;;;4992125;28;20185;-52
2023/04/29 01:12:36;;;;;;;1.45;1.35;;;;;;;;;;4977043;28;20192;-52
2023/04/29 01:15:24;;;;;;;1.52;1.40;;;;;;;;;;4994905;28;20224;-52
2023/04/29 01:17:53;;;;;;;2.05;1.48;;;;;;;;;;4986682;28;20285;-52
2023/04/29 01:20:20;;;;;;;1.38;1.27;;;;;;;;;;4993267;28;20196;-52
2023/04/29 01:22:47;;;;;;;1.45;1.35;;;;;;;;;;4993445;28;20183;-52
2023/04/29 01:25:13;;;;;;;1.42;1.33;;;;;;;;;;4994613;28;20205;-52
2023/04/29 01:27:45;;;;;;;1.58;1.48;;;;;;;;;;4985882;28;20525;-52
2023/04/29 01:30:20;;;;;;;1.48;1.38;;;;;;;;;;4990343;28;20561;-52
2023/04/29 01:32:52;;;;;;;1.50;1.40;;;;;;;;;;4989786;28;20264;-52
2023/04/29 01:35:33;;;;;;;1.40;1.30;;;;;;;;;;4994033;28;20193;-52
2023/04/29 01:37:59;;;;;;;1.63;1.52;;;;;;;;;;4992502;28;20204;-52
2023/04/29 01:40:42;;;;;;;1.60;1.50;;;;;;;;;;4992786;28;20208;-52
2023/04/29 01:43:10;;;;;;;1.50;1.40;;;;;;;;;;4993692;28;20189;-52
2023/04/29 01:45:40;;;;;;;1.35;1.25;;;;;;;;;;4996484;28;20203;-52
2023/04/29 01:48:06;;;;;;;1.55;1.40;;;;;;;;;;4996723;28;20173;-52
2023/04/29 01:50:32;;;;;;;1.40;1.30;;;;;;;;;;4994964;28;20518;-52
2023/04/29 01:52:58;;;;;;;1.50;1.38;;;;;;;;;;4997716;28;20201;-52
2023/04/29 01:55:24;;;;;;;1.90;1.80;;;;;;;;;;4998246;28;20197;-52
2023/04/29 01:57:50;;;;;;;1.25;1.15;;;;;;;;;;4997476;28;20484;-52
2023/04/29 02:00:16;;;;;;;1.92;1.30;;;;;;;;;;4996579;28;20607;-52
2023/04/29 02:02:42;;;;;;;1.40;1.30;;;;;;;;;;4997755;28;20246;-52
2023/04/29 02:05:08;;;;;;;1.45;1.33;;;;;;;;;;4997737;28;20632;-52
2023/04/29 02:07:34;;;;;;;1.50;1.40;;;;;;;;;;4997577;28;20177;-52
2023/04/29 02:10:00;;;;;;;1.70;1.40;;;;;;;;;;4997317;28;20185;-52
2023/04/29 02:12:26;;;;;;;1.13;1.02;;;;;;;;;;4997927;28;20209;-52
2023/04/29 02:14:53;;;;;;;1.35;1.25;;;;;;;;;;4997260;28;20181;-52
2023/04/29 02:17:19;;;;;;;1.30;1.17;;;;;;;;;;4996385;28;20201;-52
2023/04/29 02:19:44;;;;;;;1.02;1.00;;;;;;;;;;4997478;28;20215;-52
2023/04/29 02:22:11;;;;;;;1.63;1.30;;;;;;;;;;4997327;28;20208;-52
2023/04/29 02:24:37;;;;;;;1.38;1.27;;;;;;;;;;4997234;28;20181;-52
2023/04/29 02:27:05;;;;;;;1.50;1.40;;;;;;;;;;4996277;28;20208;-52
2023/04/29 02:29:32;;;;;;;1.20;1.20;;;;;;;;;;4996146;28;20192;-52
2023/04/29 02:31:58;;;;;;;1.45;1.35;;;;;;;;;;4997415;28;20450;-52
2023/04/29 02:34:24;;;;;;;1.10;1.10;;;;;;;;;;4995695;28;20189;-52
2023/04/29 02:36:50;;;;;;;1.13;1.10;;;;;;;;;;4996504;28;20762;-52
2023/04/29 02:39:15;;;;;;;2.38;1.10;;;;;;;;;;4993903;28;20199;-52
2023/04/29 02:41:42;;;;;;;1.55;1.20;;;;;;;;;;4994788;28;20185;-52
2023/04/29 02:44:08;;;;;;;1.27;1.23;;;;;;;;;;4995880;28;20484;-52
2023/04/29 02:46:35;;;;;;;1.48;1.38;;;;;;;;;;4996412;28;20218;-52
2023/04/29 02:49:01;;;;;;;1.30;1.20;;;;;;;;;;4995370;28;20546;-52
2023/04/29 02:51:27;;;;;;;1.25;1.17;;;;;;;;;;4995725;28;20557;-52
2023/04/29 02:53:54;;;;;;;1.20;1.10;;;;;;;;;;4996784;28;20569;-52
2023/04/29 02:56:20;;;;;;;1.23;1.13;;;;;;;;;;4996540;28;20484;-52
2023/04/29 02:58:46;;;;;;;1.17;1.08;;;;;;;;;;4995926;28;20416;-52
2023/04/29 03:01:12;;;;;;;1.10;1.10;;;;;;;;;;4996143;28;20212;-52
2023/04/29 03:03:38;;;;;;;1.40;1.30;;;;;;;;;;4996784;28;20192;-52
2023/04/29 03:06:04;;;;;;;0.93;0.93;;;;;;;;;;4995125;28;20205;-52
2023/04/29 03:08:30;;;;;;;1.00;1.00;;;;;;;;;;4996166;28;20260;-52
2023/04/29 03:10:56;;;;;;;1.00;1.00;;;;;;;;;;4991080;28;20457;-52
2023/04/29 03:13:22;;;;;;;1.40;1.20;;;;;;;;;;4996329;28;20240;-52
2023/04/29 03:15:48;;;;;;;1.20;1.10;;;;;;;;;;4995138;28;20229;-52
2023/04/29 03:18:13;;;;;;;1.20;1.20;;;;;;;;;;4996083;28;20204;-52
2023/04/29 03:20:39;;;;;;;1.40;1.05;;;;;;;;;;4995443;28;20193;-52
2023/04/29 03:23:05;;;;;;;1.38;1.27;;;;;;;;;;4995978;28;20181;-52
2023/04/29 03:25:31;;;;;;;1.00;1.00;;;;;;;;;;4995708;28;20232;-52
2023/04/29 03:27:57;;;;;;;1.00;1.00;;;;;;;;;;4995718;28;20185;-52
2023/04/29 03:30:23;;;;;;;0.90;0.90;;;;;;;;;;4993716;28;20186;-52
2023/04/29 03:32:49;;;;;;;1.17;1.10;;;;;;;;;;4995832;28;20255;-52
2023/04/29 03:35:15;;;;;;;1.10;1.10;;;;;;;;;;4995136;28;20565;-52
2023/04/29 03:37:43;;;;;;;1.08;1.08;;;;;;;;;;4994143;28;20186;-52
2023/04/29 03:40:09;;;;;;;0.90;0.90;;;;;;;;;;4995381;28;20177;-52
2023/04/29 03:42:36;;;;;;;1.08;1.08;;;;;;;;;;4994692;28;20173;-52
2023/04/29 03:45:02;;;;;;;1.20;1.10;;;;;;;;;;4995551;28;20268;-52
2023/04/29 03:47:27;;;;;;;0.98;0.98;;;;;;;;;;4994407;28;20650;-52
2023/04/29 03:49:53;;;;;;;1.20;1.10;;;;;;;;;;4994519;28;20185;-52
2023/04/29 03:52:19;;;;;;;1.00;1.00;;;;;;;;;;4995191;28;20189;-52
2023/04/29 03:54:45;;;;;;;1.20;1.10;;;;;;;;;;4994733;28;20454;-52
2023/04/29 03:57:11;;;;;;;1.25;1.15;;;;;;;;;;4995004;28;20482;-52
2023/04/29 03:59:37;;;;;;;1.13;1.13;;;;;;;;;;4995381;28;20276;-52
2023/04/29 04:02:03;;;;;;;1.23;1.13;;;;;;;;;;4995527;28;20188;-52
2023/04/29 04:04:29;;;;;;;1.00;1.00;;;;;;;;;;4978574;28;20568;-52
2023/04/29 04:06:55;;;;;;;1.40;1.30;;;;;;;;;;4994847;28;20247;-52
2023/04/29 04:09:21;;;;;;;0.98;0.98;;;;;;;;;;4995127;28;20181;-52
2023/04/29 04:11:47;;;;;;;1.15;1.05;;;;;;;;;;4995204;28;20212;-52
2023/04/29 04:14:13;;;;;;;1.02;1.02;;;;;;;;;;4995673;28;20450;-52
2023/04/29 04:16:39;;;;;;;0.95;0.95;;;;;;;;;;4987560;28;20260;-52
2023/04/29 04:19:05;;;;;;;0.90;0.90;;;;;;;;;;4995875;28;20520;-52
2023/04/29 04:21:30;;;;;;;1.27;1.17;;;;;;;;;;4994893;28;20239;-52
2023/04/29 04:23:56;;;;;;;0.90;0.90;;;;;;;;;;4994887;28;20185;-52
2023/04/29 04:26:22;;;;;;;1.13;1.02;;;;;;;;;;4994850;28;20213;-52
2023/04/29 04:28:48;;;;;;;1.10;1.00;;;;;;;;;;4994171;28;20785;-52
2023/04/29 04:31:15;;;;;;;1.17;1.10;;;;;;;;;;4994906;28;20188;-52
2023/04/29 04:33:41;;;;;;;1.23;1.17;;;;;;;;;;4994910;28;20192;-52
2023/04/29 04:36:07;;;;;;;1.20;1.20;;;;;;;;;;4992985;28;20189;-52
2023/04/29 04:38:33;;;;;;;1.17;1.10;;;;;;;;;;4993334;28;20255;-52
2023/04/29 04:40:59;;;;;;;0.90;0.90;;;;;;;;;;4993210;28;20263;-53
2023/04/29 04:43:25;;;;;;;1.75;1.00;;;;;;;;;;4995290;28;20181;-54
2023/04/29 04:45:51;;;;;;;2.45;1.00;;;;;;;;;;4994259;28;20473;-55
2023/04/29 04:48:17;;;;;;;2.90;1.25;;;;;;;;;;4994122;28;20204;-55
2023/04/29 04:50:43;;;;;;;4.03;1.50;;;;;;;;;;4993242;28;20244;-55
2023/04/29 04:53:09;;;;;;;6.63;1.58;;;;;;;;;;4994193;28;20742;-55
2023/04/29 04:55:35;;;;;;;2.00;1.20;;;;;;;;;;4994362;28;20223;-55
2023/04/29 04:58:01;;;;;;;1.58;1.15;;;;;;;;;;4994477;28;20208;-55
2023/04/29 05:00:27;;;;;;;1.30;1.20;;;;;;;;;;4993623;28;20580;-55
2023/04/29 05:02:53;;;;;;;1.67;1.30;;;;;;;;;;4993961;28;20192;-54
2023/04/29 05:05:19;;;;;;;4.07;1.73;;;;;;;;;;4994433;28;20209;-54
2023/04/29 05:07:46;;;;;;;1.20;1.10;;;;;;;;;;4994546;28;20173;-55
2023/04/29 05:10:12;;;;;;;3.55;1.20;;;;;;;;;;4992549;28;20173;-54
2023/04/29 05:12:37;;;;;;;1.80;1.20;;;;;;;;;;4994343;28;20200;-54
2023/04/29 05:15:04;;;;;;;3.10;1.10;;;;;;;;;;4992392;28;20185;-54
2023/04/29 05:17:29;;;;;;;1.40;1.15;;;;;;;;;;4992641;28;20236;-54
2023/04/29 05:19:55;;;;;;;2.40;1.10;;;;;;;;;;4994119;28;20216;-54
2023/04/29 05:22:21;;;;;;;0.90;0.90;;;;;;;;;;4997024;28;20220;-54
2023/04/29 05:24:47;;;;;;;2.08;1.20;;;;;;;;;;4998377;28;20235;-54
2023/04/29 05:27:14;;;;;;;1.20;1.10;;;;;;;;;;4997730;28;20559;-54
2023/04/29 05:29:40;;;;;;;1.33;1.23;;;;;;;;;;4996541;28;20264;-54
2023/04/29 05:32:06;;;;;;;1.75;1.00;;;;;;;;;;4997823;28;20358;-54
2023/04/29 05:34:32;;;;;;;2.50;1.20;;;;;;;;;;4997423;28;20209;-52
2023/04/29 05:36:58;;;;;;;1.48;0.90;;;;;;;;;;4996790;28;20548;-51
2023/04/29 05:39:25;;;;;;;0.90;0.90;;;;;;;;;;4996789;28;20465;-52
2023/04/29 05:41:51;;;;;;;4.25;0.90;;;;;;;;;;4996781;28;20196;-52
2023/04/29 05:44:17;;;;;;;2.10;1.10;;;;;;;;;;4997601;28;20189;-52
2023/04/29 05:46:43;;;;;;;1.10;0.93;;;;;;;;;;4997242;28;20215;-53
2023/04/29 05:49:09;;;;;;;2.55;0.98;;;;;;;;;;4996762;28;20428;-53
2023/04/29 05:51:35;;;;;;;1.60;1.13;;;;;;;;;;4996671;28;20185;-53
2023/04/29 05:54:01;;;;;;;1.13;1.02;;;;;;;;;;4997598;28;20236;-53
2023/04/29 05:56:27;;;;;;;1.60;1.05;;;;;;;;;;4998079;28;20556;-53
2023/04/29 05:58:52;;;;;;;1.27;1.00;;;;;;;;;;4996923;28;20220;-53
2023/04/29 06:01:18;;;;;;;1.65;1.00;;;;;;;;;;4997579;28;20243;-54
2023/04/29 06:03:44;;;;;;;0.98;0.90;;;;;;;;;;4998032;28;20232;-54
2023/04/29 06:06:11;;;;;;;2.67;1.10;;;;;;;;;;4998148;28;20197;-54
2023/04/29 06:08:37;;;;;;;1.42;1.10;;;;;;;;;;4996872;28;20185;-54
2023/04/29 06:11:04;;;;;;;0.80;0.80;;;;;;;;;;4997787;28;20189;-54
2023/04/29 06:13:30;;;;;;;1.00;1.00;;;;;;;;;;4996924;28;20181;-54
2023/04/29 06:15:56;;;;;;;1.00;0.98;;;;;;;;;;4989966;28;20235;-54
2023/04/29 06:18:22;;;;;;;1.77;0.70;;;;;;;;;;4997145;28;20509;-54
2023/04/29 06:20:48;;;;;;;2.58;0.82;;;;;;;;;;4997178;28;20532;-53
2023/04/29 06:23:14;;;;;;;0.98;0.90;;;;;;;;;;4997323;28;20217;-54
2023/04/29 06:25:40;;;;;;;1.00;1.00;;;;;;;;;;4996600;28;20222;-54
2023/04/29 06:28:07;;;;;;;0.90;0.90;;;;;;;;;;4995797;28;20492;-54
2023/04/29 06:30:33;;;;;;;1.10;1.00;;;;;;;;;;4994604;28;20196;-54
2023/04/29 06:32:59;;;;;;;1.65;1.00;;;;;;;;;;4996735;28;20177;-54
2023/04/29 06:35:25;;;;;;;0.80;0.80;;;;;;;;;;4995710;28;20197;-54
2023/04/29 06:37:51;;;;;;;1.52;1.35;;;;;;;;;;4995682;28;20181;-54
2023/04/29 06:40:17;;;;;;;1.85;1.00;;;;;;;;;;4996312;28;20181;-54
2023/04/29 06:42:43;;;;;;;0.90;0.90;;;;;;;;;;4995665;28;20196;-54
2023/04/29 06:45:09;;;;;;;1.20;0.80;;;;;;;;;;4997310;28;20181;-55
2023/04/29 06:47:35;;;;;;;1.35;0.80;;;;;;;;;;4995268;28;20211;-54
2023/04/29 06:50:02;;;;;;;0.80;0.80;;;;;;;;;;4995475;28;20185;-54
2023/04/29 06:52:28;;;;;;;1.25;1.13;;;;;;;;;;4996258;28;20185;-54
2023/04/29 06:54:54;;;;;;;1.23;1.13;;;;;;;;;;4996494;28;20196;-54
2023/04/29 06:57:20;;;;;;;0.90;0.90;;;;;;;;;;4994494;28;20181;-54
2023/04/29 06:59:46;;;;;;;0.63;0.63;;;;;;;;;;4994999;28;20205;-54
2023/04/29 07:02:12;;;;;;;1.00;1.00;;;;;;;;;;4996378;28;20268;-54
2023/04/29 07:04:38;;;;;;;1.00;1.00;;;;;;;;;;4996094;28;20211;-54
2023/04/29 07:07:04;;;;;;;1.13;1.02;;;;;;;;;;4995810;28;20584;-55
2023/04/29 07:09:30;;;;;;;1.25;0.80;;;;;;;;;;4995508;28;20193;-55
2023/04/29 07:11:56;;;;;;;0.90;0.90;;;;;;;;;;4995493;28;20181;-55
2023/04/29 07:14:22;;;;;;;1.17;1.05;;;;;;;;;;4995588;28;20189;-55
2023/04/29 07:16:52;;;;;;;0.90;0.90;;;;;;;;;;4995952;28;20208;-55
2023/04/29 07:19:18;;;;;;;0.80;0.80;;;;;;;;;;4995745;28;20185;-55
2023/04/29 07:21:44;;;;;;;0.98;0.90;;;;;;;;;;4994778;28;20188;-54
2023/04/29 07:24:10;;;;;;;0.73;0.68;;;;;;;;;;4996000;28;20534;-54
2023/04/29 07:26:36;;;;;;;0.98;0.70;;;;;;;;;;4994637;28;20239;-54
2023/04/29 07:29:02;;;;;;;1.05;1.00;;;;;;;;;;4993870;28;20269;-54
2023/04/29 07:31:28;;;;;;;0.75;0.75;;;;;;;;;;4994926;28;20185;-54
2023/04/29 07:33:54;;;;;;;2.00;0.88;;;;;;;;;;4996010;28;20185;-54
2023/04/29 07:36:20;;;;;;;0.90;0.90;;;;;;;;;;4995742;28;20604;-54
2023/04/29 07:38:46;;;;;;;1.00;1.00;;;;;;;;;;4994862;28;20209;-54
2023/04/29 07:41:12;;;;;;;0.88;0.88;;;;;;;;;;4994236;28;20255;-54
2023/04/29 07:43:38;;;;;;;0.85;0.85;;;;;;;;;;4995232;28;20191;-54
2023/04/29 07:46:04;;;;;;;0.75;0.75;;;;;;;;;;4996359;28;20513;-54
2023/04/29 07:48:30;;;;;;;0.80;0.80;;;;;;;;;;4994311;28;20443;-54
2023/04/29 07:50:56;;;;;;;0.60;0.60;;;;;;;;;;4995000;28;20186;-54
2023/04/29 07:53:22;;;;;;;0.70;0.70;;;;;;;;;;4994526;28;20271;-54
2023/04/29 07:55:48;;;;;;;0.82;0.82;;;;;;;;;;4994361;28;20221;-54
2023/04/29 07:58:14;;;;;;;1.80;0.90;;;;;;;;;;4995511;28;20192;-54
2023/04/29 08:00:40;;;;;;;0.80;0.80;;;;;;;;;;4995547;28;20449;-54
2023/04/29 08:03:06;;;;;;;0.95;0.95;;;;;;;;;;4995378;28;20196;-54
2023/04/29 08:05:32;;;;;;;1.00;0.80;;;;;;;;;;4995230;28;20205;-54
2023/04/29 08:07:58;;;;;;;0.65;0.65;;;;;;;;;;4994799;28;20180;-54
2023/04/29 08:10:24;;;;;;;0.85;0.85;;;;;;;;;;4995719;28;20189;-54
2023/04/29 08:12:50;;;;;;;1.00;0.90;;;;;;;;;;4994696;28;20185;-54
2023/04/29 08:15:17;;;;;;;1.98;1.00;;;;;;;;;;4994619;28;20177;-54
2023/04/29 08:17:43;;;;;;;2.22;1.10;;;;;;;;;;4991079;28;20173;-55
2023/04/29 08:20:09;;;;;;;2.13;1.63;;;;;;;;;;4995131;28;20256;-55
2023/04/29 08:22:35;;;;;;;1.70;1.60;;;;;;;;;;4994883;28;20184;-55
2023/04/29 08:25:02;;;;;;;4.35;1.60;;;;;;;;;;4995408;28;20177;-55
2023/04/29 08:27:28;;;;;;;2.42;1.17;;;;;;;;;;4994215;28;20212;-55
2023/04/29 08:29:54;;;;;;;3.28;1.52;;;;;;;;;;4994058;28;20185;-55
2023/04/29 08:32:21;;;;;;;2.65;1.40;;;;;;;;;;4994131;28;20184;-55
2023/04/29 08:34:47;;;;;;;3.20;1.45;;;;;;;;;;4992617;28;20212;-54
2023/04/29 08:37:14;;;;;;;1.88;1.30;;;;;;;;;;4989065;28;20217;-55
2023/04/29 08:39:42;;;;;;;3.75;1.35;;;;;;;;;;4992651;28;20193;-55
2023/04/29 08:42:08;;;;;;;1.88;1.27;;;;;;;;;;4991967;28;20178;-55
2023/04/29 08:44:35;;;;;;;2.55;1.35;;;;;;;;;;4994213;28;20185;-55
2023/04/29 08:47:01;;;;;;;1.40;1.30;;;;;;;;;;4991840;28;20204;-54
2023/04/29 08:49:28;;;;;;;1.55;1.30;;;;;;;;;;4994103;28;20560;-54
2023/04/29 08:51:54;;;;;;;2.45;1.40;;;;;;;;;;4994013;28;20228;-53
2023/04/29 08:54:20;;;;;;;2.47;1.60;;;;;;;;;;4993559;28;20477;-53
2023/04/29 08:56:46;;;;;;;2.28;1.48;;;;;;;;;;4994034;28;20196;-54
2023/04/29 08:59:16;;;;;;;3.25;1.60;;;;;;;;;;4992493;28;20243;-54
2023/04/29 09:01:43;;;;;;;8.95;2.90;;;;;;;;;;4994393;28;20193;-54
2023/04/29 09:04:11;;;;;;;5.93;2.00;;;;;;;;;;4994200;28;20205;-54
2023/04/29 09:06:37;;;;;;;4.47;1.92;;;;;;;;;;4994389;28;20504;-54
2023/04/29 09:09:04;;;;;;;5.63;1.73;;;;;;;;;;4993333;28;20564;-54
2023/04/29 09:11:30;;;;;;;4.68;1.83;;;;;;;;;;4992224;28;20243;-54
2023/04/29 09:14:00;;;;;;;4.95;1.83;;;;;;;;;;4994192;28;20191;-54
2023/04/29 09:16:26;;;;;;;5.70;1.60;;;;;;;;;;4995133;28;20649;-54
2023/04/29 09:18:54;;;;;;;5.82;1.70;;;;;;;;;;4993663;28;20193;-54
2023/04/29 09:21:19;;;;;;;5.22;1.50;;;;;;;;;;4994054;28;20213;-54
2023/04/29 09:23:47;;;;;;;3.67;1.42;;;;;;;;;;4993814;28;20271;-54
2023/04/29 09:26:14;;;;;;;8.23;1.65;;;;;;;;;;4993981;28;20201;-54
2023/04/29 09:28:42;;;;;;;5.22;2.00;;;;;;;;;;4992410;28;20193;-54
2023/04/29 09:31:09;;;;;;;3.22;1.50;;;;;;;;;;4994538;28;20181;-54
2023/04/29 09:33:55;;;;;;;2.33;1.60;;;;;;;;;;4994192;28;20517;-54
2023/04/29 09:36:35;;;;;;;2.83;1.33;;;;;;;;;;4988386;28;20348;-54
2023/04/29 09:39:01;;;;;;;4.88;1.60;;;;;;;;;;4993098;28;20650;-54
2023/04/29 09:41:27;;;;;;;3.35;2.03;;;;;;;;;;4993088;28;20221;-54
2023/04/29 09:44:06;;;;;;;2.60;1.40;;;;;;;;;;4976427;28;20189;-54
2023/04/29 09:46:33;;;;;;;1.77;1.08;;;;;;;;;;4993840;28;20415;-54
2023/04/29 09:49:00;;;;;;;4.88;1.50;;;;;;;;;;4976108;28;20190;-54
2023/04/29 09:51:26;;;;;;;4.07;1.80;;;;;;;;;;4993659;28;20553;-54
2023/04/29 09:53:52;;;;;;;3.90;1.55;;;;;;;;;;4976692;28;20180;-54
2023/04/29 09:56:18;;;;;;;1.75;1.55;;;;;;;;;;4993242;28;20209;-54
2023/04/29 09:58:44;;;;;;;3.05;1.30;;;;;;;;;;4993663;28;20220;-54
2023/04/29 10:01:12;;;;;;;4.35;1.27;;;;;;;;;;4993910;28;20281;-54
2023/04/29 10:03:38;;;;;;;3.42;1.20;;;;;;;;;;4994173;28;20185;-54
2023/04/29 10:06:05;;;;;;;2.30;0.95;;;;;;;;;;4995657;28;20288;-54
2023/04/29 10:08:32;;;;;;;2.30;1.13;;;;;;;;;;4995273;28;20189;-54
2023/04/29 10:11:02;;;;;;;2.70;1.13;;;;;;;;;;4997556;28;20219;-54
2023/04/29 10:13:29;;;;;;;3.20;1.30;;;;;;;;;;4997088;28;20561;-54
2023/04/29 10:16:03;;;;;;;2.42;1.27;;;;;;;;;;4995394;28;20177;-54
2023/04/29 10:18:36;;;;;;;3.72;1.30;;;;;;;;;;4996262;28;20275;-54
2023/04/29 10:21:02;;;;;;;2.72;1.02;;;;;;;;;;4997413;28;20181;-54
2023/04/29 10:23:29;;;;;;;1.40;1.23;;;;;;;;;;4998177;28;20247;-54
2023/04/29 10:25:57;;;;;;;2.05;1.10;;;;;;;;;;4998144;28;20216;-54
2023/04/29 10:28:23;;;;;;;2.78;1.23;;;;;;;;;;4995329;28;20224;-54
2023/04/29 10:30:53;;;;;;;2.10;1.00;;;;;;;;;;4992372;28;20209;-54
2023/04/29 10:33:22;;;;;;;3.10;1.20;;;;;;;;;;4995925;28;20181;-54
2023/04/29 10:35:48;;;;;;;2.65;1.00;;;;;;;;;;4997125;28;20185;-54
2023/04/29 10:38:23;;;;;;;1.27;1.02;;;;;;;;;;4994960;28;20223;-55
2023/04/29 10:40:51;;;;;;;2.40;1.25;;;;;;;;;;4996325;28;20871;-54
2023/04/29 10:43:22;;;;;;;1.38;1.02;;;;;;;;;;4996449;28;20264;-54
2023/04/29 10:45:48;;;;;;;1.63;0.95;;;;;;;;;;4996476;28;20240;-54
2023/04/29 10:48:14;;;;;;;1.98;1.40;;;;;;;;;;4996924;28;20220;-54
2023/04/29 10:51:00;;;;;;;1.98;1.05;;;;;;;;;;4994251;28;20181;-54
2023/04/29 10:53:27;;;;;;;1.98;1.02;;;;;;;;;;4994955;28;20204;-54
2023/04/29 10:55:54;;;;;;;2.38;1.08;;;;;;;;;;4995225;28;20236;-54
2023/04/29 10:58:38;;;;;;;2.15;0.90;;;;;;;;;;4995588;28;20219;-54
2023/04/29 11:01:06;;;;;;;2.65;1.20;;;;;;;;;;4996074;28;20184;-54
2023/04/29 11:03:47;;;;;;;1.63;1.20;;;;;;;;;;4996361;28;20608;-54
2023/04/29 11:06:14;;;;;;;1.38;1.00;;;;;;;;;;4990758;28;20247;-54
2023/04/29 11:08:40;;;;;;;4.68;1.52;;;;;;;;;;4994678;28;20195;-54
2023/04/29 11:11:06;;;;;;;1.55;0.90;;;;;;;;;;4995627;28;20735;-55
2023/04/29 11:13:37;;;;;;;2.67;1.27;;;;;;;;;;4996097;28;20190;-55
2023/04/29 11:16:04;;;;;;;2.53;1.08;;;;;;;;;;4996815;28;20193;-55
2023/04/29 11:18:30;;;;;;;2.97;1.10;;;;;;;;;;4994065;28;20181;-55
2023/04/29 11:21:08;;;;;;;7.65;1.48;;;;;;;;;;4994360;28;20616;-55
2023/04/29 11:23:34;;;;;;;3.40;1.23;;;;;;;;;;4992433;28;20585;-55
2023/04/29 11:26:03;;;;;;;2.60;1.00;;;;;;;;;;4996203;28;20235;-55
2023/04/29 11:28:32;;;;;;;1.60;1.15;;;;;;;;;;4995237;28;20185;-55
2023/04/29 11:30:58;;;;;;;3.00;1.08;;;;;;;;;;4995803;28;20192;-55
2023/04/29 11:33:26;;;;;;;2.45;1.17;;;;;;;;;;4995482;28;20460;-54
2023/04/29 11:35:52;;;;;;;1.25;0.95;;;;;;;;;;4995598;28;20177;-54
2023/04/29 11:38:23;;;;;;;1.02;0.93;;;;;;;;;;4994953;28;20203;-55
2023/04/29 11:40:49;;;;;;;3.20;0.90;;;;;;;;;;4995169;28;20274;-55
2023/04/29 11:43:25;;;;;;;1.38;1.10;;;;;;;;;;4995481;28;20236;-55
2023/04/29 11:45:51;;;;;;;1.67;1.13;;;;;;;;;;4994287;28;20232;-55
2023/04/29 11:48:18;;;;;;;3.05;1.10;;;;;;;;;;4993899;28;20185;-55
2023/04/29 11:50:45;;;;;;;5.65;1.25;;;;;;;;;;4995658;28;20181;-55
2023/04/29 11:53:11;;;;;;;2.42;1.30;;;;;;;;;;4995038;28;20587;-55
2023/04/29 11:55:37;;;;;;;2.65;1.33;;;;;;;;;;4991913;28;20196;-55
2023/04/29 11:58:06;;;;;;;4.50;1.45;;;;;;;;;;4995187;28;20639;-55
2023/04/29 12:00:32;;;;;;;3.45;1.20;;;;;;;;;;4995127;28;20192;-55
2023/04/29 12:02:58;;;;;;;2.13;1.20;;;;;;;;;;4995903;28;20189;-55
2023/04/29 12:05:27;;;;;;;4.20;1.20;;;;;;;;;;4995541;28;20264;-55
2023/04/29 12:07:54;;;;;;;4.90;1.48;;;;;;;;;;4997027;28;20192;-55
2023/04/29 12:10:20;;;;;;;3.30;1.30;;;;;;;;;;4995334;28;20192;-55
2023/04/29 12:12:47;;;;;;;4.35;1.25;;;;;;;;;;4995127;28;20190;-50
2023/04/29 12:15:13;;;;;;;3.35;1.10;;;;;;;;;;4995035;28;20216;-49
2023/04/29 12:17:40;;;;;;;3.38;1.17;;;;;;;;;;4994566;28;20243;-49
2023/04/29 12:20:10;;;;;;;2.42;1.02;;;;;;;;;;4992233;28;20469;-50
2023/04/29 12:22:36;;;;;;;2.05;1.00;;;;;;;;;;4995605;28;20185;-49
2023/04/29 12:25:03;;;;;;;3.33;1.20;;;;;;;;;;4995292;28;20239;-49
2023/04/29 12:27:29;;;;;;;5.25;1.30;;;;;;;;;;4994157;28;20672;-49
2023/04/29 12:29:56;;;;;;;3.50;1.23;;;;;;;;;;4994697;28;20208;-49
2023/04/29 12:32:22;;;;;;;1.30;1.20;;;;;;;;;;4995460;28;20192;-50
2023/04/29 12:34:50;;;;;;;1.27;1.08;;;;;;;;;;4995283;28;20640;-49
2023/04/29 12:37:16;;;;;;;4.70;1.10;;;;;;;;;;4994071;28;20640;-49
2023/04/29 12:39:42;;;;;;;1.73;0.93;;;;;;;;;;4993354;28;20193;-49
2023/04/29 12:42:14;;;;;;;3.17;1.20;;;;;;;;;;4994111;28;20223;-49
2023/04/29 12:44:39;;;;;;;2.17;1.00;;;;;;;;;;4977187;28;20189;-49
2023/04/29 12:47:09;;;;;;;3.10;1.00;;;;;;;;;;4994042;28;20251;-49
2023/04/29 12:49:36;;;;;;;2.25;1.00;;;;;;;;;;4992714;28;20631;-49
2023/04/29 12:52:03;;;;;;;3.40;1.30;;;;;;;;;;4976359;28;20459;-49
2023/04/29 12:54:29;;;;;;;3.00;1.20;;;;;;;;;;4993389;28;20205;-49
2023/04/29 12:56:55;;;;;;;2.55;1.10;;;;;;;;;;4993138;28;20607;-49
2023/04/29 12:59:21;;;;;;;3.33;1.02;;;;;;;;;;4991943;28;20189;-50
2023/04/29 13:01:47;;;;;;;2.22;1.00;;;;;;;;;;4993996;28;20315;-50
2023/04/29 13:04:13;;;;;;;4.63;1.20;;;;;;;;;;4993884;28;20193;-50
2023/04/29 13:06:40;;;;;;;2.97;1.25;;;;;;;;;;4994126;28;20205;-49
2023/04/29 13:09:10;;;;;;;6.10;1.27;;;;;;;;;;4992283;28;20409;-42
2023/04/29 13:11:36;;;;;;;3.95;1.25;;;;;;;;;;4994059;28;20526;-47
2023/04/29 13:14:02;;;;;;;3.47;1.42;;;;;;;;;;4994234;28;20203;-51
2023/04/29 13:16:28;;;;;;;1.73;1.30;;;;;;;;;;4994500;28;20196;-48
2023/04/29 13:18:54;;;;;;;8.00;1.40;;;;;;;;;;4993964;28;20189;-51
2023/04/29 13:21:20;;;;;;;6.57;1.52;;;;;;;;;;4994891;28;20185;-50
2023/04/29 13:23:47;;;;;;;5.50;1.45;;;;;;;;;;4994311;28;20224;-52
2023/04/29 13:26:13;;;;;;;6.35;1.50;;;;;;;;;;4993198;28;20223;-50
2023/04/29 13:28:40;;;;;;;5.80;1.77;;;;;;;;;;4993463;28;20185;-53
2023/04/29 13:31:06;;;;;;;2.15;0.88;;;;;;;;;;4993567;28;20185;-50
2023/04/29 13:33:31;;;;;;;2.78;1.30;;;;;;;;;;4994058;28;20192;-48
2023/04/29 13:35:57;;;;;;;3.40;1.50;;;;;;;;;;4994188;28;20593;-50
2023/04/29 13:38:23;;;;;;;1.67;1.17;;;;;;;;;;4993278;28;20192;-48
2023/04/29 13:40:50;;;;;;;2.45;1.50;;;;;;;;;;4995180;28;20185;-51
2023/04/29 13:43:16;;;;;;;3.15;1.60;;;;;;;;;;4997280;28;20192;-47
2023/04/29 13:45:41;;;;;;;9.68;1.55;;;;;;;;;;4998151;28;20209;-49
2023/04/29 13:48:07;;;;;;;1.70;1.30;;;;;;;;;;4996902;28;20185;-47
2023/04/29 13:50:33;;;;;;;4.85;1.48;;;;;;;;;;4995659;28;20181;-51
2023/04/29 13:53:00;;;;;;;3.88;1.55;;;;;;;;;;4997600;28;20255;-48
2023/04/29 13:55:27;;;;;;;4.13;1.55;;;;;;;;;;4997831;28;20199;-51
2023/04/29 13:57:53;;;;;;;1.80;1.45;;;;;;;;;;4997637;28;20259;-50
2023/04/29 14:00:19;;;;;;;3.38;2.20;;;;;;;;;;4997724;28;20260;-49
2023/04/29 14:02:45;;;;;;;5.65;1.75;;;;;;;;;;4998359;28;20247;-45
2023/04/29 14:05:11;;;;;;;4.72;1.95;;;;;;;;;;4997719;28;20580;-50
2023/04/29 14:07:37;;;;;;;2.10;1.27;;;;;;;;;;4997643;28;20263;-49
2023/04/29 14:10:03;;;;;;;2.05;1.40;;;;;;;;;;4996715;28;20196;-51
2023/04/29 14:12:29;;;;;;;1.42;1.30;;;;;;;;;;4997509;28;20192;-53
2023/04/29 14:14:55;;;;;;;4.43;1.40;;;;;;;;;;4997814;28;20185;-51
2023/04/29 14:17:21;;;;;;;2.20;1.30;;;;;;;;;;4993695;28;20584;-47
2023/04/29 14:19:47;;;;;;;5.80;1.65;;;;;;;;;;4994504;28;20209;-52
2023/04/29 14:22:12;;;;;;;4.78;2.00;;;;;;;;;;4997296;28;20181;-50
2023/04/29 14:24:38;;;;;;;3.67;1.52;;;;;;;;;;4997715;28;20306;-50
2023/04/29 14:27:05;;;;;;;3.72;2.17;;;;;;;;;;4995435;28;20209;-50
2023/04/29 14:29:31;;;;;;;3.75;2.22;;;;;;;;;;4996116;28;20466;-50
2023/04/29 14:31:57;;;;;;;6.25;2.10;;;;;;;;;;4995975;28;20181;-50
2023/04/29 14:34:23;;;;;;;7.03;2.17;;;;;;;;;;4993741;28;20296;-50
2023/04/29 14:36:49;;;;;;;2.70;1.90;;;;;;;;;;4995546;28;20640;-48
2023/04/29 14:39:15;;;;;;;4.95;2.30;;;;;;;;;;4995174;28;20173;-62
2023/04/29 14:41:41;;;;;;;4.47;2.50;;;;;;;;;;4996459;28;20224;-49